Архив погоды в Бирске

Метеограмма Бирск
Вторник, 27 Июня
Время местн. Темп Ветер Видим Явления Облачность нижн/средн/верх Атм. давл. Влжн Точка росы ВНГО R Сост. почвы Tg s
Напр Скр Прв ур.ст ур.м изм
05:00 +16° Ю 4 - 20 км - переменная облачность 741 757 -0.3 75% +11.6° 1 км - - - -
02:00 +16.4° Ю,Ю-З 3 - 10 км - облачно с прояснениями 741 758 -0.4 71% +11.1° 1 км - - - -
Понедельник, 26 Июня
Время местн. Темп Ветер Видим Явления Облачность нижн/средн/верх Атм. давл. Влжн Точка росы ВНГО R Сост. почвы Tg s
Напр Скр Прв ур.ст ур.м изм
23:00 +17.4° Ю 2 - 10 км - облачно с прояснениями 742 758 +0.1 66% +11° 1 км - - - -
20:00 +20.3° З,Ю-З 2 - 20 км - переменная облачность 742 758 +0.1 52% +10.2° 1 км 0 - - -
17:00 +20.4° З 4 - 20 км - переменная облачность 742 758 -0.2 43% +7.4° 1 км - - - -
14:00 +18.2° З 4 - 20 км - облачно с прояснениями 742 758 +0.5 46% +6.4° 1 км - - - -
11:00 +16.5° З 3 - 20 км - облачно с прояснениями 742 758 +0.8 55% +7.4° 1 км - - - -
08:00 +12.7° З 3 - 20 км - облачно с прояснениями 741 757 +1.1 76% +8.5° 1 км 0 Влажная (без луж) +8° -
05:00 +10.2° Ю-З 2 - 20 км - ясно 740 756 +0.6 88% +8.3° более 2.5 км - - - -
02:00 - +11.9° Ю-З 2 - - - - 739 756 +0.8 88% +10° - - - - -
Воскресенье, 25 Июня
Время местн. Темп Ветер Видим Явления Облачность нижн/средн/верх Атм. давл. Влжн Точка росы ВНГО R Сост. почвы Tg s
Напр Скр Прв ур.ст ур.м изм
23:00 +12.6° З 2 - 10 км - облачно с прояснениями 738 755 +1.4 81% +9.4° 1 км - - - -
20:00 +13.6° З 4 16 20 км - преимущественно облачно 737 753 +3 72% +8.7° 1 км 0.7 - - -
17:00 +14.4° З,С-З 7 16 20 км небо без изменений {ливневые осадки} преимущественно облачно 734 750 +4.5 70% +8.9° 1 км - - - -
14:00 +12.1° З,С-З 6 16 4 км слабый ливневый дождь облачно 729 746 +2.6 91% +10.7° 600 м - - - -
11:00 +13.7° Ю 6 13 10 км слабый ливневый дождь облачно 727 743 -0.5 80% +10.4° 1 км - - - -
08:00 +14.2° Ю-В 4 13 20 км ливневый дождь преимущественно облачно 727 743 -3.2 88% +12.3° 1 км 30 Влажная (без луж) +12° -
05:00 +11.9° В 5 - 4 км слабый ливневый дождь облачно 730 747 -3.9 94% +10.9° 1 км - - - -
02:00 +11.8° В 4 - 4 км слабый ливневый дождь облачно 734 751 -2.8 93% +10.7° 1 км - - - -
Суббота, 24 Июня
Время местн. Темп Ветер Видим Явления Облачность нижн/средн/верх Атм. давл. Влжн Точка росы ВНГО R Сост. почвы Tg s
Напр Скр Прв ур.ст ур.м изм
23:00 +12.2° В 3 - 4 км слабый ливневый дождь облачно 737 754 -1.3 93% +11.1° 1 км - - - -
20:00 +14.2° Ю,Ю-В 1 - 10 км слабый ливневый дождь облачно 738 755 -0.2 87% +12.1° 1 км 2 - - -
17:00 +17.8° Ю-З 3 - 20 км - преимущественно облачно 738 755 -0.2 59% +9.7° 1 км - - - -
14:00 +17.9° Ю,Ю-З 4 - 20 км - переменная облачность 739 755 -0.5 60% +10° 1 км - - - -
11:00 +13.4° В,Ю-В 2 - 20 км ливневый дождь облачно с прояснениями 739 756 +0.2 80% +10.1° 1 км - - - -
08:00 +15.5° Ю,Ю-З 2 - 20 км - облачно с прояснениями 739 755 -0.2 58% +7.2° 1 км 0 Сухая (без трещин) +10° -
05:00 +12.5° Ю-З 2 - 20 км - переменная облачность 739 756 0 71% +7.3° 1 км - - - -
02:00 +13° Ю,Ю-З 2 - 10 км - ясно 739 756 -0.3 70% +7.7° более 2.5 км - - - -